Time;durP1;ratioP1;P1;durP2;ratioP2;P2;SDS_P1;SDS_P2;PMS_P1;PMS_P2;Temp;Humidity;BMP_temperature;BMP_pressure;BME280_temperature;BME280_humidity;BME280_pressure;Samples;Min_cycle;Max_cycle;Signal;HPM_P1;HPM_P2
2022/11/14 00:00:06;;;;;;;;;;;;;;;;;;5029345;28;1110;-64
2022/11/14 00:02:32;;;;;;;;;;;;;;;;;;5029187;28;894;-64
2022/11/14 00:04:57;;;;;;;;;;;;;;;;;;5028233;28;5097;-63
2022/11/14 00:07:22;;;;;;;;;;;;;;;;;;5026327;28;4939;-63
2022/11/14 00:09:47;;;;;;;;;;;;;;;;;;5028617;28;5081;-64
2022/11/14 00:12:13;;;;;;;;;;;;;;;;;;5028754;28;5087;-63
2022/11/14 00:14:38;;;;;;;;;;;;;;;;;;5020625;28;1382;-64
2022/11/14 00:17:03;;;;;;;;;;;;;;;;;;5022959;28;4458;-63
2022/11/14 00:19:29;;;;;;;;;;;;;;;;;;5028184;28;5135;-63
2022/11/14 00:21:54;;;;;;;;;;;;;;;;;;5028979;28;4861;-63
2022/11/14 00:24:19;;;;;;;;;;;;;;;;;;5028875;28;4604;-63
2022/11/14 00:26:45;;;;;;;;;;;;;;;;;;5028376;28;1539;-63
2022/11/14 00:29:11;;;;;;;;;;;;;;;;;;5028788;28;5020;-63
2022/11/14 00:31:36;;;;;;;;;;;;;;;;;;5026507;28;4996;-63
2022/11/14 00:34:01;;;;;;;;;;;;;;;;;;5028586;28;4999;-63
2022/11/14 00:36:26;;;;;;;;;;;;;;;;;;5027581;28;5181;-63
2022/11/14 00:38:53;;;;;;;;;;;;;;;;;;5028189;28;1433;-63
2022/11/14 00:41:18;;;;;;;;;;;;;;;;;;5030788;28;4897;-63
2022/11/14 00:43:43;;;;;;;;;;;;;;;;;;5030871;28;5043;-63
2022/11/14 00:46:09;;;;;;;;;;;;;;;;;;5012199;28;4407;-63
2022/11/14 00:48:34;;;;;;;;;;;;;;;;;;5030280;28;4703;-63
2022/11/14 00:50:59;;;;;;;;;;;;;;;;;;5032555;28;1126;-63
2022/11/14 00:53:24;;;;;;;;;;;;;;;;;;5031945;28;5555;-63
2022/11/14 00:55:50;;;;;;;;;;;;;;;;;;5031749;28;4476;-63
2022/11/14 00:58:15;;;;;;;;;;;;;;;;;;5030632;28;5149;-63
2022/11/14 01:00:40;;;;;;;;;;;;;;;;;;5031897;28;4982;-62
2022/11/14 01:03:06;;;;;;;;;;;;;;;;;;5030765;28;4647;-62
2022/11/14 01:05:31;;;;;;;;;;;;;;;;;;5030302;28;1881;-64
2022/11/14 01:07:56;;;;;;;;;;;;;;;;;;5030641;28;5086;-64
2022/11/14 01:10:21;;;;;;;;;;;;;;;;;;5030367;28;4850;-64
2022/11/14 01:12:47;;;;;;;;;;;;;;;;;;5031325;28;5138;-64
2022/11/14 01:15:12;;;;;;;;;;;;;;;;;;5018266;28;5269;-64
2022/11/14 01:17:37;;;;;;;;;;;;;;;;;;5020681;28;1548;-63
2022/11/14 01:20:03;;;;;;;;;;;;;;;;;;5014915;28;5063;-64
2022/11/14 01:22:28;;;;;;;;;;;;;;;;;;5010764;28;5039;-64
2022/11/14 01:24:57;;;;;;;;;;;;;;;;;;5010713;28;5126;-64
2022/11/14 01:27:22;;;;;;;;;;;;;;;;;;5026253;28;5045;-64
2022/11/14 01:29:47;;;;;;;;;;;;;;;;;;5024278;28;1658;-63
2022/11/14 01:32:12;;;;;;;;;;;;;;;;;;5030864;28;4849;-64
2022/11/14 01:34:38;;;;;;;;;;;;;;;;;;5022851;28;5036;-64
2022/11/14 01:37:03;;;;;;;;;;;;;;;;;;5030587;28;4456;-64
2022/11/14 01:39:28;;;;;;;;;;;;;;;;;;5031388;28;5089;-64
2022/11/14 01:41:54;;;;;;;;;;;;;;;;;;5031338;28;1515;-64
2022/11/14 01:44:38;;;;;;;;;;;;;;;;;;5025258;28;4623;-63
2022/11/14 01:47:03;;;;;;;;;;;;;;;;;;5028230;28;5482;-63
2022/11/14 01:49:35;;;;;;;;;;;;;;;;;;5029443;28;4853;-63
2022/11/14 01:52:01;;;;;;;;;;;;;;;;;;5031227;28;4519;-63
2022/11/14 01:54:28;;;;;;;;;;;;;;;;;;5030149;28;5092;-63
2022/11/14 01:56:54;;;;;;;;;;;;;;;;;;5028581;28;1544;-63
2022/11/14 01:59:20;;;;;;;;;;;;;;;;;;5030776;28;5051;-63
2022/11/14 02:01:47;;;;;;;;;;;;;;;;;;5029832;28;4842;-63
2022/11/14 02:04:12;;;;;;;;;;;;;;;;;;5008851;28;5354;-63
2022/11/14 02:06:38;;;;;;;;;;;;;;;;;;5012588;28;4453;-63
2022/11/14 02:09:03;;;;;;;;;;;;;;;;;;5028016;28;5065;-62
2022/11/14 02:11:29;;;;;;;;;;;;;;;;;;5030728;28;4768;-63
2022/11/14 02:13:54;;;;;;;;;;;;;;;;;;5038490;28;4984;-64
2022/11/14 02:16:20;;;;;;;;;;;;;;;;;;5009163;28;5278;-63
2022/11/14 02:18:45;;;;;;;;;;;;;;;;;;5025703;28;5233;-64
2022/11/14 02:21:10;;;;;;;;;;;;;;;;;;5030319;28;4460;-64
2022/11/14 02:23:35;;;;;;;;;;;;;;;;;;5029751;28;1467;-64
2022/11/14 02:26:00;;;;;;;;;;;;;;;;;;5044497;28;4970;-64
2022/11/14 02:28:26;;;;;;;;;;;;;;;;;;5029991;28;4779;-64
2022/11/14 02:30:51;;;;;;;;;;;;;;;;;;5023559;28;5040;-64
2022/11/14 02:33:16;;;;;;;;;;;;;;;;;;5012018;28;5232;-64
2022/11/14 02:35:41;;;;;;;;;;;;;;;;;;5029673;28;1441;-64
2022/11/14 02:38:07;;;;;;;;;;;;;;;;;;5029938;28;5699;-62
2022/11/14 02:40:32;;;;;;;;;;;;;;;;;;5028543;28;4832;-63
2022/11/14 02:42:57;;;;;;;;;;;;;;;;;;5028676;28;4956;-63
2022/11/14 02:45:23;;;;;;;;;;;;;;;;;;4998202;28;5040;-62
2022/11/14 02:47:48;;;;;;;;;;;;;;;;;;5025592;28;1086;-62
2022/11/14 02:50:13;;;;;;;;;;;;;;;;;;5021816;28;4892;-62
2022/11/14 02:52:38;;;;;;;;;;;;;;;;;;5006026;28;4857;-62
2022/11/14 02:55:04;;;;;;;;;;;;;;;;;;5016676;28;5072;-62
2022/11/14 02:57:29;;;;;;;;;;;;;;;;;;5028858;28;4692;-62
2022/11/14 02:59:54;;;;;;;;;;;;;;;;;;5029294;28;1552;-62
2022/11/14 03:02:20;;;;;;;;;;;;;;;;;;5028713;28;5041;-62
2022/11/14 03:04:45;;;;;;;;;;;;;;;;;;5027634;28;4900;-62
2022/11/14 03:07:10;;;;;;;;;;;;;;;;;;5027271;28;4406;-61
2022/11/14 03:09:35;;;;;;;;;;;;;;;;;;5029023;28;5196;-61
2022/11/14 03:12:01;;;;;;;;;;;;;;;;;;5029189;28;4902;-61
2022/11/14 03:14:26;;;;;;;;;;;;;;;;;;5026833;28;4521;-61
2022/11/14 03:16:53;;;;;;;;;;;;;;;;;;5028470;28;4392;-62
2022/11/14 03:19:18;;;;;;;;;;;;;;;;;;5027638;28;5022;-65
2022/11/14 03:21:44;;;;;;;;;;;;;;;;;;5028159;28;5059;-64
2022/11/14 03:24:09;;;;;;;;;;;;;;;;;;5028868;28;5064;-64
2022/11/14 03:26:34;;;;;;;;;;;;;;;;;;5029258;28;914;-63
2022/11/14 03:29:00;;;;;;;;;;;;;;;;;;5028931;28;5681;-64
2022/11/14 03:31:25;;;;;;;;;;;;;;;;;;5028362;28;4535;-63
2022/11/14 03:33:50;;;;;;;;;;;;;;;;;;5027647;28;4930;-63
2022/11/14 03:36:15;;;;;;;;;;;;;;;;;;5028707;28;5021;-64
2022/11/14 03:38:41;;;;;;;;;;;;;;;;;;5029029;28;1451;-63
2022/11/14 03:41:07;;;;;;;;;;;;;;;;;;5028697;28;4834;-63
2022/11/14 03:43:32;;;;;;;;;;;;;;;;;;5027591;28;5050;-63
2022/11/14 03:45:58;;;;;;;;;;;;;;;;;;5010029;28;4491;-63
2022/11/14 03:48:24;;;;;;;;;;;;;;;;;;5008912;28;5239;-64
2022/11/14 03:50:49;;;;;;;;;;;;;;;;;;5024515;28;1629;-63
2022/11/14 03:53:14;;;;;;;;;;;;;;;;;;5025674;28;5276;-63
2022/11/14 03:55:41;;;;;;;;;;;;;;;;;;5028650;28;5081;-63
2022/11/14 03:58:07;;;;;;;;;;;;;;;;;;5028542;28;4584;-63
2022/11/14 04:00:32;;;;;;;;;;;;;;;;;;5028135;28;4724;-63
2022/11/14 04:02:57;;;;;;;;;;;;;;;;;;5035828;28;1421;-63
2022/11/14 04:05:22;;;;;;;;;;;;;;;;;;5046209;28;5084;-63
2022/11/14 04:07:48;;;;;;;;;;;;;;;;;;5039896;28;4382;-63
2022/11/14 04:10:13;;;;;;;;;;;;;;;;;;5028236;28;4374;-63
2022/11/14 04:12:38;;;;;;;;;;;;;;;;;;5026531;28;4829;-63
2022/11/14 04:15:04;;;;;;;;;;;;;;;;;;5033489;28;4986;-63
2022/11/14 04:17:29;;;;;;;;;;;;;;;;;;5019831;28;1597;-63
2022/11/14 04:19:54;;;;;;;;;;;;;;;;;;5032257;28;5187;-63
2022/11/14 04:22:19;;;;;;;;;;;;;;;;;;5030934;28;4954;-63
2022/11/14 04:24:45;;;;;;;;;;;;;;;;;;5031933;28;5038;-63
2022/11/14 04:27:10;;;;;;;;;;;;;;;;;;5030753;28;4830;-63
2022/11/14 04:29:35;;;;;;;;;;;;;;;;;;5031944;28;1483;-64
2022/11/14 04:32:00;;;;;;;;;;;;;;;;;;5030996;28;5054;-63
2022/11/14 04:34:25;;;;;;;;;;;;;;;;;;5030040;28;4993;-63
2022/11/14 04:36:51;;;;;;;;;;;;;;;;;;5031790;28;4943;-64
2022/11/14 04:39:16;;;;;;;;;;;;;;;;;;5031261;28;5040;-64
2022/11/14 04:41:42;;;;;;;;;;;;;;;;;;5032112;28;1321;-64
2022/11/14 04:44:07;;;;;;;;;;;;;;;;;;5026211;28;4882;-64
2022/11/14 04:46:32;;;;;;;;;;;;;;;;;;5011709;28;5575;-64
2022/11/14 04:48:57;;;;;;;;;;;;;;;;;;5031038;28;5526;-64
2022/11/14 04:51:23;;;;;;;;;;;;;;;;;;5031529;28;4898;-64
2022/11/14 04:53:48;;;;;;;;;;;;;;;;;;5028819;28;1981;-63
2022/11/14 04:56:13;;;;;;;;;;;;;;;;;;5031191;28;4813;-63
2022/11/14 04:58:38;;;;;;;;;;;;;;;;;;5031503;28;5364;-64
2022/11/14 05:01:07;;;;;;;;;;;;;;;;;;5031925;28;5170;-63
2022/11/14 05:03:33;;;;;;;;;;;;;;;;;;5028709;28;5085;-63
2022/11/14 05:06:01;;;;;;;;;;;;;;;;;;5029635;28;1417;-63
2022/11/14 05:08:26;;;;;;;;;;;;;;;;;;5031446;28;4982;-63
2022/11/14 05:10:51;;;;;;;;;;;;;;;;;;5030907;28;5041;-63
2022/11/14 05:13:16;;;;;;;;;;;;;;;;;;5029744;28;4963;-63
2022/11/14 05:15:42;;;;;;;;;;;;;;;;;;5026428;28;5001;-63
2022/11/14 05:18:07;;;;;;;;;;;;;;;;;;5031012;28;5042;-63
2022/11/14 05:20:32;;;;;;;;;;;;;;;;;;5026989;28;1487;-63
2022/11/14 05:22:58;;;;;;;;;;;;;;;;;;5025487;28;5052;-63
2022/11/14 05:25:23;;;;;;;;;;;;;;;;;;5010017;28;4899;-63
2022/11/14 05:27:48;;;;;;;;;;;;;;;;;;5026912;28;5049;-63
2022/11/14 05:30:14;;;;;;;;;;;;;;;;;;5026813;28;5026;-64
2022/11/14 05:32:39;;;;;;;;;;;;;;;;;;5030815;28;1997;-63
2022/11/14 05:35:05;;;;;;;;;;;;;;;;;;5041147;28;5429;-63
2022/11/14 05:37:30;;;;;;;;;;;;;;;;;;5028600;28;4847;-63
2022/11/14 05:39:55;;;;;;;;;;;;;;;;;;5022068;28;5194;-63
2022/11/14 05:42:20;;;;;;;;;;;;;;;;;;5030543;28;4535;-64
2022/11/14 05:44:46;;;;;;;;;;;;;;;;;;5021781;28;1444;-63
2022/11/14 05:47:11;;;;;;;;;;;;;;;;;;5026499;28;5053;-64
2022/11/14 05:49:36;;;;;;;;;;;;;;;;;;5028392;28;5111;-63
2022/11/14 05:52:01;;;;;;;;;;;;;;;;;;5029246;28;5093;-63
2022/11/14 05:54:27;;;;;;;;;;;;;;;;;;5029904;28;5125;-63
2022/11/14 05:56:52;;;;;;;;;;;;;;;;;;5030928;28;1317;-63
2022/11/14 05:59:17;;;;;;;;;;;;;;;;;;5030032;28;4412;-63
2022/11/14 06:01:42;;;;;;;;;;;;;;;;;;5028802;28;5051;-63
2022/11/14 06:04:08;;;;;;;;;;;;;;;;;;5029816;28;4986;-63
2022/11/14 06:06:33;;;;;;;;;;;;;;;;;;5028178;28;5158;-63
2022/11/14 06:08:58;;;;;;;;;;;;;;;;;;5030554;28;1089;-63
2022/11/14 06:11:23;;;;;;;;;;;;;;;;;;5029355;28;5068;-63
2022/11/14 06:13:49;;;;;;;;;;;;;;;;;;5026171;28;5042;-63
2022/11/14 06:16:15;;;;;;;;;;;;;;;;;;5023775;28;5396;-63
2022/11/14 06:18:40;;;;;;;;;;;;;;;;;;5029578;28;4572;-63
2022/11/14 06:21:06;;;;;;;;;;;;;;;;;;5029117;28;4942;-63
2022/11/14 06:23:31;;;;;;;;;;;;;;;;;;5030024;28;1122;-63
2022/11/14 06:25:57;;;;;;;;;;;;;;;;;;5025585;28;4996;-63
2022/11/14 06:28:22;;;;;;;;;;;;;;;;;;5028820;28;5388;-64
2022/11/14 06:30:47;;;;;;;;;;;;;;;;;;5028411;28;4448;-63
2022/11/14 06:33:13;;;;;;;;;;;;;;;;;;5029254;28;5071;-63
2022/11/14 06:35:38;;;;;;;;;;;;;;;;;;5028675;28;1380;-64
2022/11/14 06:38:03;;;;;;;;;;;;;;;;;;5028821;28;5073;-64
2022/11/14 06:40:28;;;;;;;;;;;;;;;;;;5028910;28;4935;-63
2022/11/14 06:42:54;;;;;;;;;;;;;;;;;;5029450;28;4477;-63
2022/11/14 06:45:20;;;;;;;;;;;;;;;;;;5016671;28;5102;-64
2022/11/14 06:47:45;;;;;;;;;;;;;;;;;;5010107;28;1030;-63
2022/11/14 06:50:10;;;;;;;;;;;;;;;;;;5010848;28;5285;-63
2022/11/14 06:52:35;;;;;;;;;;;;;;;;;;5028819;28;5089;-64
2022/11/14 06:55:01;;;;;;;;;;;;;;;;;;5027547;28;5332;-63
2022/11/14 06:57:26;;;;;;;;;;;;;;;;;;5029857;28;5071;-64
2022/11/14 06:59:51;;;;;;;;;;;;;;;;;;5029788;28;1393;-64
2022/11/14 07:02:16;;;;;;;;;;;;;;;;;;5027986;28;5932;-63
2022/11/14 07:04:42;;;;;;;;;;;;;;;;;;5028368;28;5523;-63
2022/11/14 07:07:07;;;;;;;;;;;;;;;;;;5024561;28;4479;-64
2022/11/14 07:09:32;;;;;;;;;;;;;;;;;;5029130;28;5142;-64
2022/11/14 07:11:57;;;;;;;;;;;;;;;;;;5026412;28;4655;-64
2022/11/14 07:14:23;;;;;;;;;;;;;;;;;;5023700;28;4899;-64
2022/11/14 07:16:48;;;;;;;;;;;;;;;;;;5009703;28;5030;-64
2022/11/14 07:19:13;;;;;;;;;;;;;;;;;;5009468;28;4996;-64
2022/11/14 07:21:38;;;;;;;;;;;;;;;;;;5017929;28;4988;-64
2022/11/14 07:24:04;;;;;;;;;;;;;;;;;;5029202;28;4844;-63
2022/11/14 07:26:29;;;;;;;;;;;;;;;;;;5028830;28;950;-63
2022/11/14 07:28:55;;;;;;;;;;;;;;;;;;5027988;28;5022;-63
2022/11/14 07:31:20;;;;;;;;;;;;;;;;;;5028124;28;5068;-64
2022/11/14 07:33:45;;;;;;;;;;;;;;;;;;5028734;28;4993;-63
2022/11/14 07:36:11;;;;;;;;;;;;;;;;;;5028825;28;4661;-63
2022/11/14 07:38:36;;;;;;;;;;;;;;;;;;5029226;28;2006;-64
2022/11/14 07:41:11;;;;;;;;;;;;;;;;;;5027875;28;5067;-64
2022/11/14 07:43:36;;;;;;;;;;;;;;;;;;5027832;28;4698;-63
2022/11/14 07:46:14;;;;;;;;;;;;;;;;;;5028490;28;4662;-63
2022/11/14 07:48:40;;;;;;;;;;;;;;;;;;5027580;28;5584;-64
2022/11/14 07:51:05;;;;;;;;;;;;;;;;;;5026463;28;5282;-64
2022/11/14 07:53:31;;;;;;;;;;;;;;;;;;5027686;28;1906;-66
2022/11/14 07:55:56;;;;;;;;;;;;;;;;;;5027060;28;5008;-65
2022/11/14 07:58:22;;;;;;;;;;;;;;;;;;5027962;28;5603;-69
2022/11/14 08:00:47;;;;;;;;;;;;;;;;;;5024487;28;5177;-68
2022/11/14 08:03:12;;;;;;;;;;;;;;;;;;5028235;28;4966;-69
2022/11/14 08:05:37;;;;;;;;;;;;;;;;;;5027045;28;1306;-66
2022/11/14 08:08:03;;;;;;;;;;;;;;;;;;4996995;28;5107;-69
2022/11/14 08:10:28;;;;;;;;;;;;;;;;;;5005837;28;4971;-71
2022/11/14 08:12:59;;;;;;;;;;;;;;;;;;5002759;28;5100;-69
2022/11/14 08:15:25;;;;;;;;;;;;;;;;;;5005824;28;5257;-69
2022/11/14 08:17:50;;;;;;;;;;;;;;;;;;4993052;28;1608;-65
2022/11/14 08:20:15;;;;;;;;;;;;;;;;;;5005672;28;4662;-66
2022/11/14 08:22:40;;;;;;;;;;;;;;;;;;5019092;28;4980;-68
2022/11/14 08:25:06;;;;;;;;;;;;;;;;;;5004886;28;4591;-62
2022/11/14 08:27:31;;;;;;;;;;;;;;;;;;4997052;28;4866;-62
2022/11/14 08:29:56;;;;;;;;;;;;;;;;;;5002119;28;1477;-60
2022/11/14 08:32:22;;;;;;;;;;;;;;;;;;5004642;28;4982;-61
2022/11/14 08:34:47;;;;;;;;;;;;;;;;;;5001290;28;4656;-59
2022/11/14 08:37:12;;;;;;;;;;;;;;;;;;5002117;28;5147;-59
2022/11/14 08:39:37;;;;;;;;;;;;;;;;;;5008067;28;4902;-63
2022/11/14 08:42:03;;;;;;;;;;;;;;;;;;5009194;28;1688;-66
2022/11/14 08:44:28;;;;;;;;;;;;;;;;;;5015304;28;4997;-65
2022/11/14 08:46:53;;;;;;;;;;;;;;;;;;5007946;28;5273;-63
2022/11/14 08:49:19;;;;;;;;;;;;;;;;;;5007544;28;5107;-66
2022/11/14 08:51:44;;;;;;;;;;;;;;;;;;5005959;28;5462;-66
2022/11/14 08:54:09;;;;;;;;;;;;;;;;;;5005336;28;4724;-59
2022/11/14 08:56:34;;;;;;;;;;;;;;;;;;4990877;28;1414;-58
2022/11/14 08:59:03;;;;;;;;;;;;;;;;;;5005095;28;5071;-59
2022/11/14 09:01:28;;;;;;;;;;;;;;;;;;5010281;28;5080;-57
2022/11/14 09:03:53;;;;;;;;;;;;;;;;;;5015774;28;4873;-59
2022/11/14 09:06:18;;;;;;;;;;;;;;;;;;5034233;28;5022;-64
2022/11/14 09:08:44;;;;;;;;;;;;;;;;;;5043160;28;1448;-64
2022/11/14 09:11:09;;;;;;;;;;;;;;;;;;5022497;28;4806;-60
2022/11/14 09:13:34;;;;;;;;;;;;;;;;;;5030987;28;5088;-62
2022/11/14 09:15:59;;;;;;;;;;;;;;;;;;5013953;28;4622;-64
2022/11/14 09:18:25;;;;;;;;;;;;;;;;;;5027850;28;5065;-59
2022/11/14 09:20:50;;;;;;;;;;;;;;;;;;5033840;28;1511;-57
2022/11/14 09:23:15;;;;;;;;;;;;;;;;;;5029071;28;4473;-62
2022/11/14 09:25:40;;;;;;;;;;;;;;;;;;5029512;28;5929;-61
2022/11/14 09:28:06;;;;;;;;;;;;;;;;;;5042346;28;4505;-62
2022/11/14 09:30:32;;;;;;;;;;;;;;;;;;5037756;28;4501;-59
2022/11/14 09:33:00;;;;;;;;;;;;;;;;;;5020980;28;1973;-60
2022/11/14 09:35:26;;;;;;;;;;;;;;;;;;5031002;28;4814;-59
2022/11/14 09:37:57;;;;;;;;;;;;;;;;;;5019468;28;5089;-62
2022/11/14 09:40:23;;;;;;;;;;;;;;;;;;5017433;28;4649;-63
2022/11/14 09:43:07;;;;;;;;;;;;;;;;;;5046410;28;5103;-64
2022/11/14 09:45:32;;;;;;;;;;;;;;;;;;5016553;28;4877;-62
2022/11/14 09:48:04;;;;;;;;;;;;;;;;;;5027238;28;1476;-65
2022/11/14 09:50:31;;;;;;;;;;;;;;;;;;5042669;28;5430;-64
2022/11/14 09:53:20;;;;;;;;;;;;;;;;;;5013118;28;4981;-60
2022/11/14 09:55:45;;;;;;;;;;;;;;;;;;5034393;28;4843;-61
2022/11/14 09:58:11;;;;;;;;;;;;;;;;;;5046980;28;5009;-63
2022/11/14 10:00:51;;;;;;;;;;;;;;;;;;5025716;28;4676;-64
2022/11/14 10:03:16;;;;;;;;;;;;;;;;;;5026122;28;5395;-59
2022/11/14 10:05:48;;;;;;;;;;;;;;;;;;5028370;28;1857;-58
2022/11/14 10:08:16;;;;;;;;;;;;;;;;;;5029549;28;4976;-59
2022/11/14 10:10:51;;;;;;;;;;;;;;;;;;5028557;28;4935;-62
2022/11/14 10:13:22;;;;;;;;;;;;;;;;;;5028503;28;4971;-58
2022/11/14 10:15:53;;;;;;;;;;;;;;;;;;5023934;28;5057;-62
2022/11/14 10:18:32;;;;;;;;;;;;;;;;;;5022575;28;4495;-60
2022/11/14 10:21:09;;;;;;;;;;;;;;;;;;5034127;28;1367;-61
2022/11/14 10:23:47;;;;;;;;;;;;;;;;;;5017582;28;5283;-60
2022/11/14 10:26:19;;;;;;;;;;;;;;;;;;5005621;28;4988;-60
2022/11/14 10:28:47;;;;;;;;;;;;;;;;;;5004128;28;4977;-60
2022/11/14 10:31:45;;;;;;;;;;;;;;;;;;5014689;28;5072;-59
2022/11/14 10:34:11;;;;;;;;;;;;;;;;;;5003258;28;4905;-59
2022/11/14 10:36:55;;;;;;;;;;;;;;;;;;5019839;28;5178;-58
2022/11/14 10:39:30;;;;;;;;;;;;;;;;;;5024966;28;5050;-58
2022/11/14 10:41:58;;;;;;;;;;;;;;;;;;5028853;28;1529;-59
2022/11/14 10:44:31;;;;;;;;;;;;;;;;;;5025257;28;4980;-60
2022/11/14 10:46:59;;;;;;;;;;;;;;;;;;5024470;28;5456;-61
2022/11/14 10:49:25;;;;;;;;;;;;;;;;;;5010538;28;4561;-58
2022/11/14 10:51:51;;;;;;;;;;;;;;;;;;5012540;28;4819;-58
2022/11/14 10:54:27;;;;;;;;;;;;;;;;;;5030340;28;5079;-57
2022/11/14 10:56:52;;;;;;;;;;;;;;;;;;5033099;28;1450;-60
2022/11/14 10:59:18;;;;;;;;;;;;;;;;;;5035343;28;4957;-54
2022/11/14 11:01:45;;;;;;;;;;;;;;;;;;5018697;28;5478;-61
2022/11/14 11:04:10;;;;;;;;;;;;;;;;;;5039280;28;4667;-59
2022/11/14 11:06:35;;;;;;;;;;;;;;;;;;5034950;28;4714;-63
2022/11/14 11:11:56;;;;;;;;;;;;;;;;;;5026339;28;5027;-61
2022/11/14 11:14:22;;;;;;;;;;;;;;;;;;5022395;28;4985;-56
2022/11/14 11:16:47;;;;;;;;;;;;;;;;;;5025871;28;4739;-58
2022/11/14 11:19:13;;;;;;;;;;;;;;;;;;5039908;28;5088;-60
2022/11/14 11:21:48;;;;;;;;;;;;;;;;;;5015651;28;6504;-60
2022/11/14 11:24:24;;;;;;;;;;;;;;;;;;5028245;28;5514;-61
2022/11/14 11:26:49;;;;;;;;;;;;;;;;;;5032746;28;5241;-61
2022/11/14 11:29:15;;;;;;;;;;;;;;;;;;5032624;28;5193;-61
2022/11/14 11:31:49;;;;;;;;;;;;;;;;;;5015969;28;1492;-60
2022/11/14 11:34:16;;;;;;;;;;;;;;;;;;5009397;28;5031;-61
2022/11/14 11:36:45;;;;;;;;;;;;;;;;;;5038581;28;5320;-61
2022/11/14 11:39:14;;;;;;;;;;;;;;;;;;5017755;28;5348;-63
2022/11/14 11:41:40;;;;;;;;;;;;;;;;;;5008920;28;4680;-62
2022/11/14 11:44:06;;;;;;;;;;;;;;;;;;5009283;28;1331;-60
2022/11/14 11:46:31;;;;;;;;;;;;;;;;;;5040117;28;4522;-63
2022/11/14 11:49:00;;;;;;;;;;;;;;;;;;5034809;28;5103;-64
2022/11/14 11:51:25;;;;;;;;;;;;;;;;;;5024175;28;4997;-63
2022/11/14 11:54:06;;;;;;;;;;;;;;;;;;5017271;28;4792;-61
2022/11/14 11:56:31;;;;;;;;;;;;;;;;;;5031075;28;5698;-64
2022/11/14 11:59:15;;;;;;;;;;;;;;;;;;5047562;28;1528;-65
2022/11/14 12:01:40;;;;;;;;;;;;;;;;;;5036528;28;4875;-62
2022/11/14 12:04:05;;;;;;;;;;;;;;;;;;5023728;28;4735;-64
2022/11/14 12:06:33;;;;;;;;;;;;;;;;;;5016166;28;4609;-62
2022/11/14 12:09:09;;;;;;;;;;;;;;;;;;5037275;28;4968;-58
2022/11/14 12:11:35;;;;;;;;;;;;;;;;;;5051440;28;4606;-58
2022/11/14 12:14:19;;;;;;;;;;;;;;;;;;5022542;28;1906;-63
2022/11/14 12:16:53;;;;;;;;;;;;;;;;;;5020244;28;4363;-63
2022/11/14 12:19:38;;;;;;;;;;;;;;;;;;5028569;28;4544;-60
2022/11/14 12:22:03;;;;;;;;;;;;;;;;;;5019717;28;4809;-59
2022/11/14 12:24:47;;;;;;;;;;;;;;;;;;5047651;28;5071;-60
2022/11/14 12:27:15;;;;;;;;;;;;;;;;;;5034349;28;5794;-67
2022/11/14 12:29:46;;;;;;;;;;;;;;;;;;5017439;28;6483;-71
2022/11/14 12:32:12;;;;;;;;;;;;;;;;;;5015679;28;1290;-60
2022/11/14 12:34:38;;;;;;;;;;;;;;;;;;5026970;28;5023;-61
2022/11/14 12:37:30;;;;;;;;;;;;;;;;;;5030305;28;4959;-61
2022/11/14 12:40:02;;;;;;;;;;;;;;;;;;5029311;28;5027;-61
2022/11/14 12:42:28;;;;;;;;;;;;;;;;;;5043982;28;5486;-61
2022/11/14 12:44:53;;;;;;;;;;;;;;;;;;5027096;28;5140;-60
2022/11/14 12:47:22;;;;;;;;;;;;;;;;;;5012456;28;4464;-60
2022/11/14 12:49:48;;;;;;;;;;;;;;;;;;5024088;28;1508;-60
2022/11/14 12:52:32;;;;;;;;;;;;;;;;;;5026189;28;4945;-52
2022/11/14 12:54:57;;;;;;;;;;;;;;;;;;5039227;28;5453;-60
2022/11/14 12:57:49;;;;;;;;;;;;;;;;;;5051548;28;5152;-60
2022/11/14 13:00:14;;;;;;;;;;;;;;;;;;5060421;28;5341;-55
2022/11/14 13:02:39;;;;;;;;;;;;;;;;;;5016797;28;4481;-60
2022/11/14 13:05:08;;;;;;;;;;;;;;;;;;5032121;28;1656;-60
2022/11/14 13:07:52;;;;;;;;;;;;;;;;;;5028102;28;4407;-58
2022/11/14 13:10:29;;;;;;;;;;;;;;;;;;5020469;28;5462;-60
2022/11/14 13:22:02;;;;;;;;;;;;;;;;;;5013234;28;5141;-60
2022/11/14 13:24:28;;;;;;;;;;;;;;;;;;5029675;28;5173;-61
2022/11/14 13:26:53;;;;;;;;;;;;;;;;;;5041964;28;5228;-60
2022/11/14 13:29:37;;;;;;;;;;;;;;;;;;5028348;28;5273;-60
2022/11/14 13:32:03;;;;;;;;;;;;;;;;;;5024208;28;1599;-62
2022/11/14 13:34:34;;;;;;;;;;;;;;;;;;5025957;28;4686;-62
2022/11/14 13:37:08;;;;;;;;;;;;;;;;;;5026860;28;4509;-63
2022/11/14 13:39:53;;;;;;;;;;;;;;;;;;5020433;28;4700;-58
2022/11/14 13:42:30;;;;;;;;;;;;;;;;;;5025347;28;5565;-64
2022/11/14 13:45:15;;;;;;;;;;;;;;;;;;5021872;28;5239;-60
2022/11/14 13:47:55;;;;;;;;;;;;;;;;;;5024863;28;4877;-58
2022/11/14 13:50:24;;;;;;;;;;;;;;;;;;5015608;28;5087;-59
2022/11/14 13:52:49;;;;;;;;;;;;;;;;;;5011473;28;1958;-63
2022/11/14 13:55:21;;;;;;;;;;;;;;;;;;5028783;28;4583;-64
2022/11/14 13:57:51;;;;;;;;;;;;;;;;;;5025481;28;5014;-57
2022/11/14 14:00:16;;;;;;;;;;;;;;;;;;5045622;28;5032;-59
2022/11/14 14:02:51;;;;;;;;;;;;;;;;;;5025857;28;5154;-57
2022/11/14 14:05:22;;;;;;;;;;;;;;;;;;5027382;28;1576;-59
2022/11/14 14:07:53;;;;;;;;;;;;;;;;;;5025016;28;5016;-59
2022/11/14 14:10:28;;;;;;;;;;;;;;;;;;5030053;28;4434;-59
2022/11/14 14:12:53;;;;;;;;;;;;;;;;;;5030156;28;4800;-61
2022/11/14 14:15:18;;;;;;;;;;;;;;;;;;5021436;28;5113;-64
2022/11/14 14:17:52;;;;;;;;;;;;;;;;;;5027912;28;5081;-56
2022/11/14 14:20:21;;;;;;;;;;;;;;;;;;5025567;28;4882;-63
2022/11/14 14:22:50;;;;;;;;;;;;;;;;;;5028153;28;1711;-65
2022/11/14 14:25:22;;;;;;;;;;;;;;;;;;5021585;28;4644;-66
2022/11/14 14:27:51;;;;;;;;;;;;;;;;;;5008964;28;4480;-66
2022/11/14 14:30:17;;;;;;;;;;;;;;;;;;5024677;28;5619;-68
2022/11/14 14:32:42;;;;;;;;;;;;;;;;;;5029140;28;5579;-64
2022/11/14 14:35:26;;;;;;;;;;;;;;;;;;5027924;28;1545;-60
2022/11/14 14:37:52;;;;;;;;;;;;;;;;;;5022649;28;5202;-64
2022/11/14 14:40:23;;;;;;;;;;;;;;;;;;5028573;28;4433;-59
2022/11/14 14:42:48;;;;;;;;;;;;;;;;;;5018327;28;4667;-63
2022/11/14 14:45:14;;;;;;;;;;;;;;;;;;5029057;28;5077;-55
2022/11/14 14:47:40;;;;;;;;;;;;;;;;;;5039157;28;5100;-61
2022/11/14 14:50:11;;;;;;;;;;;;;;;;;;5017638;28;1401;-63
2022/11/14 14:52:37;;;;;;;;;;;;;;;;;;5025142;28;4603;-56
2022/11/14 14:55:03;;;;;;;;;;;;;;;;;;5028177;28;4730;-57
2022/11/14 14:57:29;;;;;;;;;;;;;;;;;;5020282;28;5032;-61
2022/11/14 15:00:00;;;;;;;;;;;;;;;;;;5006117;28;5052;-61
2022/11/14 15:02:26;;;;;;;;;;;;;;;;;;5003796;28;4634;-60
2022/11/14 15:04:51;;;;;;;;;;;;;;;;;;5003275;28;2026;-60
2022/11/14 15:07:21;;;;;;;;;;;;;;;;;;4994493;28;4466;-57
2022/11/14 15:09:50;;;;;;;;;;;;;;;;;;5004945;28;5230;-60
2022/11/14 15:12:15;;;;;;;;;;;;;;;;;;5011876;28;5110;-58
2022/11/14 15:14:40;;;;;;;;;;;;;;;;;;5021740;28;5184;-58
2022/11/14 15:17:05;;;;;;;;;;;;;;;;;;5027412;28;1354;-59
2022/11/14 15:19:38;;;;;;;;;;;;;;;;;;5025866;28;5366;-61
2022/11/14 15:22:04;;;;;;;;;;;;;;;;;;5025246;28;4976;-60
2022/11/14 15:24:29;;;;;;;;;;;;;;;;;;5028098;28;4979;-60
2022/11/14 15:26:54;;;;;;;;;;;;;;;;;;5043964;28;5144;-60
2022/11/14 15:29:21;;;;;;;;;;;;;;;;;;5028070;28;5609;-62
2022/11/14 15:31:47;;;;;;;;;;;;;;;;;;5028975;28;892;-63
2022/11/14 15:34:28;;;;;;;;;;;;;;;;;;5042357;28;4674;-62
2022/11/14 15:37:09;;;;;;;;;;;;;;;;;;5027763;28;4931;-62
2022/11/14 15:39:34;;;;;;;;;;;;;;;;;;5027835;28;4635;-62
2022/11/14 15:42:19;;;;;;;;;;;;;;;;;;5028100;28;4523;-63
2022/11/14 15:44:45;;;;;;;;;;;;;;;;;;5038237;28;5017;-63
2022/11/14 15:47:12;;;;;;;;;;;;;;;;;;5024043;28;1160;-62
2022/11/14 15:49:37;;;;;;;;;;;;;;;;;;5023674;28;4930;-62
2022/11/14 15:52:03;;;;;;;;;;;;;;;;;;5008742;28;5029;-63
2022/11/14 15:54:34;;;;;;;;;;;;;;;;;;5020479;28;5203;-63
2022/11/14 15:57:11;;;;;;;;;;;;;;;;;;5028165;28;4624;-63
2022/11/14 15:59:36;;;;;;;;;;;;;;;;;;5025751;28;5169;-61
2022/11/14 16:02:28;;;;;;;;;;;;;;;;;;5028566;28;1612;-61
2022/11/14 16:04:54;;;;;;;;;;;;;;;;;;5027385;28;5087;-63
2022/11/14 16:07:19;;;;;;;;;;;;;;;;;;5025222;28;4380;-58
2022/11/14 16:09:44;;;;;;;;;;;;;;;;;;5028423;28;4587;-60
2022/11/14 16:12:09;;;;;;;;;;;;;;;;;;5032082;28;4779;-62
2022/11/14 16:14:35;;;;;;;;;;;;;;;;;;5011989;28;5607;-62
2022/11/14 16:17:00;;;;;;;;;;;;;;;;;;5014438;28;1716;-63
2022/11/14 16:19:25;;;;;;;;;;;;;;;;;;5032826;28;4968;-63
2022/11/14 16:21:50;;;;;;;;;;;;;;;;;;5030024;28;4503;-62
2022/11/14 16:24:20;;;;;;;;;;;;;;;;;;5032312;28;5002;-64
2022/11/14 16:26:45;;;;;;;;;;;;;;;;;;5032288;28;4942;-62
2022/11/14 16:29:11;;;;;;;;;;;;;;;;;;5031732;28;5347;-60
2022/11/14 16:31:36;;;;;;;;;;;;;;;;;;5032232;28;4579;-61
2022/11/14 16:34:01;;;;;;;;;;;;;;;;;;5032278;28;4924;-62
2022/11/14 16:36:26;;;;;;;;;;;;;;;;;;5031215;28;5010;-60
2022/11/14 16:38:52;;;;;;;;;;;;;;;;;;5028229;28;4997;-58
2022/11/14 16:41:17;;;;;;;;;;;;;;;;;;5031357;28;4412;-54
2022/11/14 16:43:43;;;;;;;;;;;;;;;;;;5029877;28;1559;-63
2022/11/14 16:46:08;;;;;;;;;;;;;;;;;;5030047;28;5097;-63
2022/11/14 16:48:33;;;;;;;;;;;;;;;;;;5030957;28;4429;-63
2022/11/14 16:51:00;;;;;;;;;;;;;;;;;;5029375;28;4542;-62
2022/11/14 16:53:25;;;;;;;;;;;;;;;;;;5031019;28;4661;-57
2022/11/14 16:55:50;;;;;;;;;;;;;;;;;;5031467;28;1547;-67
2022/11/14 16:58:15;;;;;;;;;;;;;;;;;;5030273;28;4633;-71
2022/11/14 17:00:43;;;;;;;;;;;;;;;;;;5031869;28;4920;-67
2022/11/14 17:03:09;;;;;;;;;;;;;;;;;;5031798;28;5110;-69
2022/11/14 17:05:41;;;;;;;;;;;;;;;;;;5029168;28;4714;-67
2022/11/14 17:08:06;;;;;;;;;;;;;;;;;;5045198;28;1632;-68
2022/11/14 17:10:31;;;;;;;;;;;;;;;;;;5043620;28;5418;-67
2022/11/14 17:12:56;;;;;;;;;;;;;;;;;;5029695;28;5015;-69
2022/11/14 17:15:22;;;;;;;;;;;;;;;;;;5028208;28;5349;-65